sensor_id;sensor_type;location;lat;lon;timestamp;pressure;altitude;pressure_sealevel;temperature;humidity
73551;BME280;61816;53.582;10.096;2023-05-10T00:01:04;54249.66;;;-144.73;54.14
73551;BME280;61816;53.582;10.096;2023-05-10T00:03:30;54210.66;;;-144.73;55.05
73551;BME280;61816;53.582;10.096;2023-05-10T00:05:56;54239.41;;;-144.73;55.10
73551;BME280;61816;53.582;10.096;2023-05-10T00:08:21;54210.66;;;-144.73;56.11
73551;BME280;61816;53.582;10.096;2023-05-10T00:10:46;54227.09;;;-144.73;55.70
73551;BME280;61816;53.582;10.096;2023-05-10T00:13:12;54206.56;;;-144.73;55.24
73551;BME280;61816;53.582;10.096;2023-05-10T00:15:37;54202.44;;;-144.73;55.50
73551;BME280;61816;53.582;10.096;2023-05-10T00:18:03;54218.88;;;-144.73;56.33
73551;BME280;61816;53.582;10.096;2023-05-10T00:20:28;54231.19;;;-144.73;56.25
73551;BME280;61816;53.582;10.096;2023-05-10T00:22:53;54227.09;;;-144.73;56.33
73551;BME280;61816;53.582;10.096;2023-05-10T00:25:19;54231.19;;;-144.73;56.12
73551;BME280;61816;53.582;10.096;2023-05-10T00:27:47;54218.88;;;-144.73;56.78
73551;BME280;61816;53.582;10.096;2023-05-10T00:30:12;54198.34;;;-144.73;57.25
73551;BME280;61816;53.582;10.096;2023-05-10T00:32:37;54227.09;;;-144.73;57.50
73551;BME280;61816;53.582;10.096;2023-05-10T00:35:03;54206.56;;;-144.73;57.95
73551;BME280;61816;53.582;10.096;2023-05-10T00:37:28;54210.66;;;-144.73;57.37
73551;BME280;61816;53.582;10.096;2023-05-10T00:39:54;54198.34;;;-144.73;57.65
73551;BME280;61816;53.582;10.096;2023-05-10T00:42:19;54210.66;;;-144.73;57.81
73551;BME280;61816;53.582;10.096;2023-05-10T00:44:44;54210.66;;;-144.73;57.97
73551;BME280;61816;53.582;10.096;2023-05-10T00:47:10;54231.19;;;-144.73;57.88
73551;BME280;61816;53.582;10.096;2023-05-10T00:49:36;54251.72;;;-144.73;57.60
73551;BME280;61816;53.582;10.096;2023-05-10T00:52:01;54255.81;;;-144.73;57.57
73551;BME280;61816;53.582;10.096;2023-05-10T00:54:28;54169.63;;;-144.73;58.13
73551;BME280;61816;53.582;10.096;2023-05-10T00:56:53;54214.78;;;-144.73;58.35
73551;BME280;61816;53.582;10.096;2023-05-10T00:59:19;54237.34;;;-144.73;57.51
73551;BME280;61816;53.582;10.096;2023-05-10T01:01:45;54204.50;;;-144.73;58.53
73551;BME280;61816;53.582;10.096;2023-05-10T01:04:15;54255.81;;;-144.73;58.39
73551;BME280;61816;53.582;10.096;2023-05-10T01:06:41;54235.28;;;-144.73;58.65
73551;BME280;61816;53.582;10.096;2023-05-10T01:09:07;54190.13;;;-144.73;58.62
73551;BME280;61816;53.582;10.096;2023-05-10T01:11:34;54214.78;;;-144.73;59.96
73551;BME280;61816;53.582;10.096;2023-05-10T01:14:01;54247.59;;;-144.73;59.35
73551;BME280;61816;53.582;10.096;2023-05-10T01:16:29;54220.94;;;-144.73;59.94
73551;BME280;61816;53.582;10.096;2023-05-10T01:18:55;54210.66;;;-144.73;59.64
73551;BME280;61816;53.582;10.096;2023-05-10T01:21:33;54227.09;;;-144.73;59.58
73551;BME280;61816;53.582;10.096;2023-05-10T01:27:34;54235.28;;;-144.73;59.88
73551;BME280;61816;53.582;10.096;2023-05-10T01:33:11;54188.09;;;-144.73;60.44
73551;BME280;61816;53.582;10.096;2023-05-10T01:35:41;54225.03;;;-144.73;60.45
73551;BME280;61816;53.582;10.096;2023-05-10T01:38:51;54249.66;;;-144.73;60.70
73551;BME280;61816;53.582;10.096;2023-05-10T01:41:18;54235.28;;;-144.73;60.40
73551;BME280;61816;53.582;10.096;2023-05-10T01:44:12;54259.91;;;-144.73;61.82
73551;BME280;61816;53.582;10.096;2023-05-10T01:46:41;54231.19;;;-144.73;61.71
73551;BME280;61816;53.582;10.096;2023-05-10T01:49:39;54227.09;;;-144.73;61.38
73551;BME280;61816;53.582;10.096;2023-05-10T01:52:12;54237.34;;;-144.73;61.91
73551;BME280;61816;53.582;10.096;2023-05-10T01:54:44;54243.50;;;-144.73;62.34
73551;BME280;61816;53.582;10.096;2023-05-10T01:57:15;54255.81;;;-144.73;62.85
73551;BME280;61816;53.582;10.096;2023-05-10T01:59:43;54198.34;;;-144.73;63.33
73551;BME280;61816;53.582;10.096;2023-05-10T02:02:11;54235.28;;;-144.73;64.07
73551;BME280;61816;53.582;10.096;2023-05-10T02:04:38;54222.97;;;-144.73;64.13
73551;BME280;61816;53.582;10.096;2023-05-10T02:07:05;54239.41;;;-144.73;63.89
73551;BME280;61816;53.582;10.096;2023-05-10T02:09:33;54231.19;;;-144.73;63.21
73551;BME280;61816;53.582;10.096;2023-05-10T02:12:01;54214.78;;;-144.73;63.36
73551;BME280;61816;53.582;10.096;2023-05-10T02:14:28;54190.13;;;-144.73;64.02
73551;BME280;61816;53.582;10.096;2023-05-10T02:16:56;54264.03;;;-144.73;65.44
73551;BME280;61816;53.582;10.096;2023-05-10T02:19:23;54222.97;;;-144.73;65.40
73551;BME280;61816;53.582;10.096;2023-05-10T02:21:50;54186.03;;;-144.73;65.17
73551;BME280;61816;53.582;10.096;2023-05-10T02:24:17;54227.09;;;-144.73;65.62
73551;BME280;61816;53.582;10.096;2023-05-10T02:26:45;54218.88;;;-144.73;65.68
73551;BME280;61816;53.582;10.096;2023-05-10T02:29:11;54227.09;;;-144.73;65.54
73551;BME280;61816;53.582;10.096;2023-05-10T02:31:38;54227.09;;;-144.73;65.92
73551;BME280;61816;53.582;10.096;2023-05-10T02:34:06;54198.34;;;-144.73;65.82
73551;BME280;61816;53.582;10.096;2023-05-10T02:36:32;54231.19;;;-144.73;66.34
73551;BME280;61816;53.582;10.096;2023-05-10T02:39:00;54243.50;;;-144.73;66.49
73551;BME280;61816;53.582;10.096;2023-05-10T02:41:27;54196.28;;;-144.73;67.35
73551;BME280;61816;53.582;10.096;2023-05-10T02:43:56;54235.28;;;-144.73;66.03
73551;BME280;61816;53.582;10.096;2023-05-10T02:46:23;54235.28;;;-144.73;66.60
73551;BME280;61816;53.582;10.096;2023-05-10T02:48:48;54235.28;;;-144.73;66.90
73551;BME280;61816;53.582;10.096;2023-05-10T02:51:15;54259.91;;;-144.73;67.14
73551;BME280;61816;53.582;10.096;2023-05-10T02:53:43;54243.50;;;-144.73;66.79
73551;BME280;61816;53.582;10.096;2023-05-10T02:56:15;54218.88;;;-144.73;67.57
73551;BME280;61816;53.582;10.096;2023-05-10T02:58:45;54214.78;;;-144.73;67.10
73551;BME280;61816;53.582;10.096;2023-05-10T03:01:10;54212.72;;;-144.73;67.30
73551;BME280;61816;53.582;10.096;2023-05-10T03:03:36;54251.72;;;-144.73;68.27
73551;BME280;61816;53.582;10.096;2023-05-10T03:06:01;54247.59;;;-144.73;68.64
73551;BME280;61816;53.582;10.096;2023-05-10T03:08:26;54231.19;;;-144.73;68.89
73551;BME280;61816;53.582;10.096;2023-05-10T03:14:21;54231.19;;;-144.73;68.37
73551;BME280;61816;53.582;10.096;2023-05-10T03:17:01;54206.56;;;-144.73;69.25
73551;BME280;61816;53.582;10.096;2023-05-10T03:21:59;54247.59;;;-144.73;69.41
73551;BME280;61816;53.582;10.096;2023-05-10T03:24:27;54194.25;;;-144.73;69.46
73551;BME280;61816;53.582;10.096;2023-05-10T03:26:55;54210.66;;;-144.73;69.50
73551;BME280;61816;53.582;10.096;2023-05-10T03:29:22;54251.72;;;-144.73;69.50
73551;BME280;61816;53.582;10.096;2023-05-10T03:31:50;54235.28;;;-144.73;70.01
73551;BME280;61816;53.582;10.096;2023-05-10T03:34:15;54255.81;;;-144.73;70.14
73551;BME280;61816;53.582;10.096;2023-05-10T03:36:40;54202.44;;;-144.73;69.78
73551;BME280;61816;53.582;10.096;2023-05-10T03:39:06;54251.72;;;-144.73;70.68
73551;BME280;61816;53.582;10.096;2023-05-10T03:41:31;54202.44;;;-144.73;69.99
73551;BME280;61816;53.582;10.096;2023-05-10T03:43:56;54259.91;;;-144.73;69.81
73551;BME280;61816;53.582;10.096;2023-05-10T03:46:21;54218.88;;;-144.73;69.80
73551;BME280;61816;53.582;10.096;2023-05-10T03:48:47;54206.56;;;-144.73;70.46
73551;BME280;61816;53.582;10.096;2023-05-10T03:51:12;54210.66;;;-144.73;70.11
73551;BME280;61816;53.582;10.096;2023-05-10T03:53:38;54198.34;;;-144.73;70.44
73551;BME280;61816;53.582;10.096;2023-05-10T03:56:03;54218.88;;;-144.73;70.61
73551;BME280;61816;53.582;10.096;2023-05-10T03:58:29;54214.78;;;-144.73;70.33
73551;BME280;61816;53.582;10.096;2023-05-10T04:00:54;54259.91;;;-144.73;70.51
73551;BME280;61816;53.582;10.096;2023-05-10T04:03:20;54231.19;;;-144.73;71.29
73551;BME280;61816;53.582;10.096;2023-05-10T04:05:45;54243.50;;;-144.73;71.76
73551;BME280;61816;53.582;10.096;2023-05-10T04:08:11;54204.50;;;-144.73;71.42
73551;BME280;61816;53.582;10.096;2023-05-10T04:10:36;54210.66;;;-144.73;70.07
73551;BME280;61816;53.582;10.096;2023-05-10T04:13:01;54222.97;;;-144.73;69.99
73551;BME280;61816;53.582;10.096;2023-05-10T04:15:27;54259.91;;;-144.73;69.87
73551;BME280;61816;53.582;10.096;2023-05-10T04:17:52;54229.13;;;-144.73;70.43
73551;BME280;61816;53.582;10.096;2023-05-10T04:20:18;54222.97;;;-144.73;70.41
73551;BME280;61816;53.582;10.096;2023-05-10T04:22:44;54194.25;;;-144.73;71.07
73551;BME280;61816;53.582;10.096;2023-05-10T04:25:09;54284.56;;;-144.73;71.19
73551;BME280;61816;53.582;10.096;2023-05-10T04:27:35;54255.81;;;-144.73;70.94
73551;BME280;61816;53.582;10.096;2023-05-10T04:30:00;54222.97;;;-144.73;71.48
73551;BME280;61816;53.582;10.096;2023-05-10T04:32:26;54220.94;;;-144.73;70.56
73551;BME280;61816;53.582;10.096;2023-05-10T04:34:51;54222.97;;;-144.73;70.38
73551;BME280;61816;53.582;10.096;2023-05-10T04:37:17;54247.59;;;-144.73;70.58
73551;BME280;61816;53.582;10.096;2023-05-10T04:39:43;54190.13;;;-144.73;70.40
73551;BME280;61816;53.582;10.096;2023-05-10T04:42:08;54222.97;;;-144.73;69.21
73551;BME280;61816;53.582;10.096;2023-05-10T04:44:34;54235.28;;;-144.73;70.20
73551;BME280;61816;53.582;10.096;2023-05-10T04:46:59;54198.34;;;-144.73;70.29
73551;BME280;61816;53.582;10.096;2023-05-10T04:49:25;54198.34;;;-144.73;69.89
73551;BME280;61816;53.582;10.096;2023-05-10T04:51:50;54198.34;;;-144.73;69.66
73551;BME280;61816;53.582;10.096;2023-05-10T04:54:16;54280.44;;;-144.73;69.90
73551;BME280;61816;53.582;10.096;2023-05-10T04:56:41;54276.34;;;-144.73;70.14
73551;BME280;61816;53.582;10.096;2023-05-10T04:59:06;54212.72;;;-144.73;71.04
73551;BME280;61816;53.582;10.096;2023-05-10T05:01:32;54227.09;;;-144.73;69.96
73551;BME280;61816;53.582;10.096;2023-05-10T05:03:57;54210.66;;;-144.73;68.78
73551;BME280;61816;53.582;10.096;2023-05-10T05:06:23;54198.34;;;-144.73;68.21
73551;BME280;61816;53.582;10.096;2023-05-10T05:08:50;54212.72;;;-144.73;68.52
73551;BME280;61816;53.582;10.096;2023-05-10T05:11:15;54218.88;;;-144.73;67.54
73551;BME280;61816;53.582;10.096;2023-05-10T05:13:41;54222.97;;;-144.73;67.73
73551;BME280;61816;53.582;10.096;2023-05-10T05:16:06;54247.59;;;-144.73;67.84
73551;BME280;61816;53.582;10.096;2023-05-10T05:18:34;54183.97;;;-144.73;68.00
73551;BME280;61816;53.582;10.096;2023-05-10T05:21:00;54251.72;;;-144.73;67.94
73551;BME280;61816;53.582;10.096;2023-05-10T05:23:26;54235.28;;;-144.73;68.31
73551;BME280;61816;53.582;10.096;2023-05-10T05:25:52;54202.44;;;-144.73;67.43
73551;BME280;61816;53.582;10.096;2023-05-10T05:28:19;54251.72;;;-144.73;67.59
73551;BME280;61816;53.582;10.096;2023-05-10T05:30:44;54222.97;;;-144.73;66.46
73551;BME280;61816;53.582;10.096;2023-05-10T05:33:09;54206.56;;;-144.73;67.12
73551;BME280;61816;53.582;10.096;2023-05-10T05:35:35;54210.66;;;-144.73;66.98
73551;BME280;61816;53.582;10.096;2023-05-10T05:38:00;54210.66;;;-144.73;66.82
73551;BME280;61816;53.582;10.096;2023-05-10T05:40:26;54253.75;;;-144.73;65.71
73551;BME280;61816;53.582;10.096;2023-05-10T05:42:51;54227.09;;;-144.73;65.19
73551;BME280;61816;53.582;10.096;2023-05-10T05:45:16;54218.88;;;-144.73;66.09
73551;BME280;61816;53.582;10.096;2023-05-10T05:47:42;54190.13;;;-144.73;65.71
73551;BME280;61816;53.582;10.096;2023-05-10T05:50:07;54206.56;;;-144.73;64.81
73551;BME280;61816;53.582;10.096;2023-05-10T05:52:33;54237.34;;;-144.73;64.65
73551;BME280;61816;53.582;10.096;2023-05-10T05:54:58;54218.88;;;-144.73;64.18
73551;BME280;61816;53.582;10.096;2023-05-10T05:57:23;54220.94;;;-144.73;63.82
73551;BME280;61816;53.582;10.096;2023-05-10T05:59:49;54222.97;;;-144.73;63.32
73551;BME280;61816;53.582;10.096;2023-05-10T06:02:14;54210.66;;;-144.73;62.64
73551;BME280;61816;53.582;10.096;2023-05-10T06:04:40;54227.09;;;-144.73;62.34
73551;BME280;61816;53.582;10.096;2023-05-10T06:07:05;54247.59;;;-144.73;60.73
73551;BME280;61816;53.582;10.096;2023-05-10T06:09:31;54194.25;;;-144.73;61.69
73551;BME280;61816;53.582;10.096;2023-05-10T06:11:56;54237.34;;;-144.73;61.22
73551;BME280;61816;53.582;10.096;2023-05-10T06:14:22;54210.66;;;-144.73;60.87
73551;BME280;61816;53.582;10.096;2023-05-10T06:16:47;54214.78;;;-144.73;61.95
73551;BME280;61816;53.582;10.096;2023-05-10T06:19:13;54235.28;;;-144.73;61.49
73551;BME280;61816;53.582;10.096;2023-05-10T06:21:38;54214.78;;;-144.73;61.10
73551;BME280;61816;53.582;10.096;2023-05-10T06:24:05;54255.81;;;-144.73;60.87
73551;BME280;61816;53.582;10.096;2023-05-10T06:26:32;54194.25;;;-144.73;59.77
73551;BME280;61816;53.582;10.096;2023-05-10T06:28:57;54243.50;;;-144.73;60.31
73551;BME280;61816;53.582;10.096;2023-05-10T06:31:23;54222.97;;;-144.73;59.43
73551;BME280;61816;53.582;10.096;2023-05-10T06:33:48;54202.44;;;-144.73;59.28
73551;BME280;61816;53.582;10.096;2023-05-10T06:36:13;54235.28;;;-144.73;60.41
73551;BME280;61816;53.582;10.096;2023-05-10T06:38:39;54186.03;;;-144.73;59.49
73551;BME280;61816;53.582;10.096;2023-05-10T06:41:05;54186.03;;;-144.73;58.76
73551;BME280;61816;53.582;10.096;2023-05-10T06:43:31;54214.78;;;-144.73;58.02
73551;BME280;61816;53.582;10.096;2023-05-10T06:45:57;54214.78;;;-144.73;57.99
73551;BME280;61816;53.582;10.096;2023-05-10T06:48:22;54188.09;;;-144.73;58.14
73551;BME280;61816;53.582;10.096;2023-05-10T06:50:48;54214.78;;;-144.73;57.54
73551;BME280;61816;53.582;10.096;2023-05-10T06:53:13;54198.34;;;-144.73;56.81
73551;BME280;61816;53.582;10.096;2023-05-10T06:55:39;54163.47;;;-144.73;56.93
73551;BME280;61816;53.582;10.096;2023-05-10T06:58:04;54194.25;;;-144.73;57.12
73551;BME280;61816;53.582;10.096;2023-05-10T07:00:30;54231.19;;;-144.73;56.98
73551;BME280;61816;53.582;10.096;2023-05-10T07:02:55;54194.25;;;-144.73;57.24
73551;BME280;61816;53.582;10.096;2023-05-10T07:05:21;54218.88;;;-144.73;56.77
73551;BME280;61816;53.582;10.096;2023-05-10T07:07:46;54214.78;;;-144.73;56.66
73551;BME280;61816;53.582;10.096;2023-05-10T07:10:11;54218.88;;;-144.73;57.18
73551;BME280;61816;53.582;10.096;2023-05-10T07:12:37;54202.44;;;-144.73;56.90
73551;BME280;61816;53.582;10.096;2023-05-10T07:15:04;54216.81;;;-144.73;57.01
73551;BME280;61816;53.582;10.096;2023-05-10T07:17:29;54202.44;;;-144.73;57.10
73551;BME280;61816;53.582;10.096;2023-05-10T07:19:54;54169.63;;;-144.73;57.40
73551;BME280;61816;53.582;10.096;2023-05-10T07:22:20;54202.44;;;-144.73;57.02
73551;BME280;61816;53.582;10.096;2023-05-10T07:24:45;54214.78;;;-144.73;57.47
73551;BME280;61816;53.582;10.096;2023-05-10T07:27:11;54194.25;;;-144.73;57.07
73551;BME280;61816;53.582;10.096;2023-05-10T07:29:38;54194.25;;;-144.73;57.44
73551;BME280;61816;53.582;10.096;2023-05-10T07:32:03;54243.50;;;-144.73;56.60
73551;BME280;61816;53.582;10.096;2023-05-10T07:34:28;54222.97;;;-144.73;56.60
73551;BME280;61816;53.582;10.096;2023-05-10T07:36:57;54200.41;;;-144.73;56.06
73551;BME280;61816;53.582;10.096;2023-05-10T07:39:23;54190.13;;;-144.73;56.32
73551;BME280;61816;53.582;10.096;2023-05-10T07:41:48;54210.66;;;-144.73;56.03
73551;BME280;61816;53.582;10.096;2023-05-10T07:44:13;54210.66;;;-144.73;56.24
73551;BME280;61816;53.582;10.096;2023-05-10T07:46:39;54222.97;;;-144.73;55.95
73551;BME280;61816;53.582;10.096;2023-05-10T07:49:04;54210.66;;;-144.73;55.78
73551;BME280;61816;53.582;10.096;2023-05-10T07:51:29;54210.66;;;-144.73;55.07
73551;BME280;61816;53.582;10.096;2023-05-10T07:53:55;54179.88;;;-144.73;54.25
73551;BME280;61816;53.582;10.096;2023-05-10T07:56:28;54251.72;;;-144.73;54.94
73551;BME280;61816;53.582;10.096;2023-05-10T07:59:00;54167.56;;;-144.73;55.63
73551;BME280;61816;53.582;10.096;2023-05-10T08:01:26;54177.81;;;-144.73;55.44
73551;BME280;61816;53.582;10.096;2023-05-10T08:03:54;54216.81;;;-144.73;54.45
73551;BME280;61816;53.582;10.096;2023-05-10T08:06:20;54227.09;;;-144.73;54.39
73551;BME280;61816;53.582;10.096;2023-05-10T08:08:46;54183.97;;;-144.73;54.57
73551;BME280;61816;53.582;10.096;2023-05-10T08:11:18;54198.34;;;-144.73;54.07
73551;BME280;61816;53.582;10.096;2023-05-10T08:13:47;54206.56;;;-144.73;54.42
73551;BME280;61816;53.582;10.096;2023-05-10T08:16:13;54202.44;;;-144.73;54.16
73551;BME280;61816;53.582;10.096;2023-05-10T08:18:39;54247.59;;;-144.73;54.88
73551;BME280;61816;53.582;10.096;2023-05-10T08:21:05;54190.13;;;-144.73;53.65
73551;BME280;61816;53.582;10.096;2023-05-10T08:23:30;54198.34;;;-144.73;55.98
73551;BME280;61816;53.582;10.096;2023-05-10T08:25:56;54210.66;;;-144.73;56.01
73551;BME280;61816;53.582;10.096;2023-05-10T08:28:21;54214.78;;;-144.73;55.96
73551;BME280;61816;53.582;10.096;2023-05-10T08:30:46;54227.09;;;-144.73;54.97
73551;BME280;61816;53.582;10.096;2023-05-10T08:33:12;54192.19;;;-144.73;53.39
73551;BME280;61816;53.582;10.096;2023-05-10T08:35:37;54200.41;;;-144.73;53.57
73551;BME280;61816;53.582;10.096;2023-05-10T08:38:02;54177.81;;;-144.73;54.14
73551;BME280;61816;53.582;10.096;2023-05-10T08:40:28;54196.28;;;-144.73;53.57
73551;BME280;61816;53.582;10.096;2023-05-10T08:43:05;54157.31;;;-144.73;53.43
73551;BME280;61816;53.582;10.096;2023-05-10T08:45:33;54227.09;;;-144.73;53.75
73551;BME280;61816;53.582;10.096;2023-05-10T08:48:02;54231.19;;;-144.73;53.50
73551;BME280;61816;53.582;10.096;2023-05-10T08:50:31;54192.19;;;-144.73;54.10
73551;BME280;61816;53.582;10.096;2023-05-10T08:52:58;54175.78;;;-144.73;54.21
73551;BME280;61816;53.582;10.096;2023-05-10T08:55:25;54192.19;;;-144.73;54.46
73551;BME280;61816;53.582;10.096;2023-05-10T08:57:51;54239.41;;;-144.73;53.24
73551;BME280;61816;53.582;10.096;2023-05-10T09:00:17;54214.78;;;-144.73;53.63
73551;BME280;61816;53.582;10.096;2023-05-10T09:02:43;54181.94;;;-144.73;53.55
73551;BME280;61816;53.582;10.096;2023-05-10T09:05:10;54198.34;;;-144.73;54.40
73551;BME280;61816;53.582;10.096;2023-05-10T09:07:36;54222.97;;;-144.73;53.74
73551;BME280;61816;53.582;10.096;2023-05-10T09:10:02;54177.81;;;-144.73;53.70
73551;BME280;61816;53.582;10.096;2023-05-10T09:12:27;54227.09;;;-144.73;53.94
73551;BME280;61816;53.582;10.096;2023-05-10T09:14:53;54204.50;;;-144.73;55.36
73551;BME280;61816;53.582;10.096;2023-05-10T09:17:19;54186.03;;;-144.73;56.11
73551;BME280;61816;53.582;10.096;2023-05-10T09:19:46;54239.41;;;-144.73;55.19
73551;BME280;61816;53.582;10.096;2023-05-10T09:22:12;54202.44;;;-144.73;54.99
73551;BME280;61816;53.582;10.096;2023-05-10T09:24:37;54218.88;;;-144.73;55.22
73551;BME280;61816;53.582;10.096;2023-05-10T09:27:07;54222.97;;;-144.73;54.39
73551;BME280;61816;53.582;10.096;2023-05-10T09:29:42;54198.34;;;-144.73;54.59
73551;BME280;61816;53.582;10.096;2023-05-10T09:32:11;54196.28;;;-144.73;55.80
73551;BME280;61816;53.582;10.096;2023-05-10T09:34:36;54214.78;;;-144.73;57.13
73551;BME280;61816;53.582;10.096;2023-05-10T09:37:05;54247.59;;;-144.73;57.53
73551;BME280;61816;53.582;10.096;2023-05-10T09:39:35;54202.44;;;-144.73;55.45
73551;BME280;61816;53.582;10.096;2023-05-10T09:42:05;54231.19;;;-144.73;56.99
73551;BME280;61816;53.582;10.096;2023-05-10T09:44:32;54165.50;;;-144.73;56.76
73551;BME280;61816;53.582;10.096;2023-05-10T09:46:58;54212.72;;;-144.73;57.72
73551;BME280;61816;53.582;10.096;2023-05-10T09:49:24;54206.56;;;-144.73;59.43
73551;BME280;61816;53.582;10.096;2023-05-10T09:52:03;54206.56;;;-144.73;60.50
73551;BME280;61816;53.582;10.096;2023-05-10T09:54:30;54222.97;;;-144.73;60.20
73551;BME280;61816;53.582;10.096;2023-05-10T09:56:56;54239.41;;;-144.73;60.90
73551;BME280;61816;53.582;10.096;2023-05-10T09:59:22;54206.56;;;-144.73;62.49
73551;BME280;61816;53.582;10.096;2023-05-10T10:01:50;54227.09;;;-144.73;63.58
73551;BME280;61816;53.582;10.096;2023-05-10T10:04:16;54239.41;;;-144.73;65.09
73551;BME280;61816;53.582;10.096;2023-05-10T10:06:42;54239.41;;;-144.73;68.45
73551;BME280;61816;53.582;10.096;2023-05-10T10:09:08;54198.34;;;-144.73;76.60
73551;BME280;61816;53.582;10.096;2023-05-10T10:11:35;54214.78;;;-144.73;84.67
73551;BME280;61816;53.582;10.096;2023-05-10T10:14:01;54202.44;;;-144.73;94.80
73551;BME280;61816;53.582;10.096;2023-05-10T10:16:28;54243.50;;;-144.73;99.83
73551;BME280;61816;53.582;10.096;2023-05-10T10:18:55;54198.34;;;-144.73;100.00
73551;BME280;61816;53.582;10.096;2023-05-10T10:21:21;54231.19;;;-144.73;100.00
73551;BME280;61816;53.582;10.096;2023-05-10T10:23:46;54227.09;;;-144.73;100.00
73551;BME280;61816;53.582;10.096;2023-05-10T10:26:12;54206.56;;;-144.73;100.00
73551;BME280;61816;53.582;10.096;2023-05-10T10:28:47;54245.56;;;-144.73;100.00
73551;BME280;61816;53.582;10.096;2023-05-10T10:31:41;54241.44;;;-144.73;100.00
73551;BME280;61816;53.582;10.096;2023-05-10T10:34:11;54218.88;;;-144.73;100.00
73551;BME280;61816;53.582;10.096;2023-05-10T10:36:45;54218.88;;;-144.73;100.00
73551;BME280;61816;53.582;10.096;2023-05-10T10:39:11;54169.63;;;-144.73;100.00
73551;BME280;61816;53.582;10.096;2023-05-10T10:41:38;54218.88;;;-144.73;100.00
73551;BME280;61816;53.582;10.096;2023-05-10T10:49:48;54257.88;;;-144.73;100.00
73551;BME280;61816;53.582;10.096;2023-05-10T10:55:13;54239.41;;;-144.73;100.00
73551;BME280;61816;53.582;10.096;2023-05-10T10:57:52;54206.56;;;-144.73;100.00
73551;BME280;61816;53.582;10.096;2023-05-10T11:02:47;54235.28;;;-144.73;100.00
73551;BME280;61816;53.582;10.096;2023-05-10T11:07:53;54233.25;;;-144.73;100.00
73551;BME280;61816;53.582;10.096;2023-05-10T11:10:24;54296.88;;;-144.73;100.00
73551;BME280;61816;53.582;10.096;2023-05-10T11:13:03;54268.13;;;-144.73;100.00
73551;BME280;61816;53.582;10.096;2023-05-10T11:15:31;54247.59;;;-144.73;100.00
73551;BME280;61816;53.582;10.096;2023-05-10T11:17:57;54235.28;;;-144.73;100.00
73551;BME280;61816;53.582;10.096;2023-05-10T11:20:22;54280.44;;;-144.73;100.00
73551;BME280;61816;53.582;10.096;2023-05-10T11:22:53;54266.06;;;-144.73;100.00
73551;BME280;61816;53.582;10.096;2023-05-10T11:25:19;54239.41;;;-144.73;100.00
73551;BME280;61816;53.582;10.096;2023-05-10T11:27:47;54255.81;;;-144.73;100.00
73551;BME280;61816;53.582;10.096;2023-05-10T11:30:13;54249.66;;;-144.73;100.00
73551;BME280;61816;53.582;10.096;2023-05-10T11:32:40;54259.91;;;-144.73;100.00
73551;BME280;61816;53.582;10.096;2023-05-10T11:35:10;54235.28;;;-144.73;100.00
73551;BME280;61816;53.582;10.096;2023-05-10T11:37:35;54235.28;;;-144.73;100.00
73551;BME280;61816;53.582;10.096;2023-05-10T11:40:01;54235.28;;;-144.73;100.00
73551;BME280;61816;53.582;10.096;2023-05-10T11:42:28;54247.59;;;-144.73;100.00
73551;BME280;61816;53.582;10.096;2023-05-10T11:44:53;54239.41;;;-144.73;100.00
73551;BME280;61816;53.582;10.096;2023-05-10T11:47:19;54276.34;;;-144.73;100.00
73551;BME280;61816;53.582;10.096;2023-05-10T11:49:46;54235.28;;;-144.73;100.00
73551;BME280;61816;53.582;10.096;2023-05-10T11:52:12;54255.81;;;-144.73;100.00
73551;BME280;61816;53.582;10.096;2023-05-10T11:54:37;54276.34;;;-144.73;100.00
73551;BME280;61816;53.582;10.096;2023-05-10T11:57:03;54255.81;;;-144.73;100.00
73551;BME280;61816;53.582;10.096;2023-05-10T11:59:29;54284.56;;;-144.73;100.00
73551;BME280;61816;53.582;10.096;2023-05-10T12:01:55;54253.75;;;-144.73;100.00
73551;BME280;61816;53.582;10.096;2023-05-10T12:04:20;54227.09;;;-144.73;100.00
73551;BME280;61816;53.582;10.096;2023-05-10T12:06:46;54259.91;;;-144.73;100.00
73551;BME280;61816;53.582;10.096;2023-05-10T12:09:12;54243.50;;;-144.73;100.00
73551;BME280;61816;53.582;10.096;2023-05-10T12:11:39;54227.09;;;-144.73;100.00
73551;BME280;61816;53.582;10.096;2023-05-10T12:14:05;54247.59;;;-144.73;100.00
73551;BME280;61816;53.582;10.096;2023-05-10T12:16:31;54239.41;;;-144.73;100.00
73551;BME280;61816;53.582;10.096;2023-05-10T12:18:59;54261.97;;;-144.73;100.00
73551;BME280;61816;53.582;10.096;2023-05-10T12:21:26;54251.72;;;-144.73;100.00
73551;BME280;61816;53.582;10.096;2023-05-10T12:23:54;54243.50;;;-144.73;100.00
73551;BME280;61816;53.582;10.096;2023-05-10T12:26:24;54247.59;;;-144.73;100.00
73551;BME280;61816;53.582;10.096;2023-05-10T12:29:00;54253.75;;;-144.73;100.00
73551;BME280;61816;53.582;10.096;2023-05-10T12:31:51;54239.41;;;-144.73;100.00
73551;BME280;61816;53.582;10.096;2023-05-10T12:34:24;54276.34;;;-144.73;100.00
73551;BME280;61816;53.582;10.096;2023-05-10T12:36:54;54259.91;;;-144.73;100.00
73551;BME280;61816;53.582;10.096;2023-05-10T12:39:19;54268.13;;;-144.73;100.00
73551;BME280;61816;53.582;10.096;2023-05-10T12:41:45;54227.09;;;-144.73;100.00
73551;BME280;61816;53.582;10.096;2023-05-10T12:44:10;54212.72;;;-144.73;100.00
73551;BME280;61816;53.582;10.096;2023-05-10T12:46:35;54247.59;;;-144.73;100.00
73551;BME280;61816;53.582;10.096;2023-05-10T12:49:01;54280.44;;;-144.73;100.00
73551;BME280;61816;53.582;10.096;2023-05-10T12:51:26;54276.34;;;-144.73;100.00
73551;BME280;61816;53.582;10.096;2023-05-10T12:53:51;54245.56;;;-144.73;100.00